Time;durP1;ratioP1;P1;durP2;ratioP2;P2;SDS_P1;SDS_P2;PMS_P1;PMS_P2;Temp;Humidity;BMP_temperature;BMP_pressure;BME280_temperature;BME280_humidity;BME280_pressure;Samples;Min_cycle;Max_cycle;Signal;HPM_P1;HPM_P2
2021/06/17 00:01:40;;;;;;;9.40;5.82;;;24.40;95.80;;;;;;4991752;28;20376;-78
2021/06/17 00:04:06;;;;;;;8.35;5.43;;;24.40;95.80;;;;;;4979484;28;20034;-76
2021/06/17 00:06:31;;;;;;;7.97;5.93;;;24.50;95.80;;;;;;4984198;28;20038;-76
2021/06/17 00:08:57;;;;;;;8.13;5.80;;;24.40;95.80;;;;;;5006257;28;20019;-77
2021/06/17 00:11:23;;;;;;;9.02;6.07;;;24.40;95.70;;;;;;4991012;28;20105;-77
2021/06/17 00:13:49;;;;;;;8.80;6.28;;;24.40;95.80;;;;;;5006693;28;20654;-77
2021/06/17 00:16:14;;;;;;;7.15;4.95;;;24.40;95.80;;;;;;4991673;28;20061;-79
2021/06/17 00:18:41;;;;;;;7.78;5.07;;;24.40;95.80;;;;;;4991431;28;20474;-78
2021/06/17 00:21:06;;;;;;;5.45;4.72;;;24.40;95.80;;;;;;4991710;28;20033;-77
2021/06/17 00:23:34;;;;;;;8.10;5.80;;;24.40;95.70;;;;;;4991399;28;20431;-77
2021/06/17 00:26:00;;;;;;;6.25;5.03;;;24.40;95.90;;;;;;4991649;28;20030;-77
2021/06/17 00:28:26;;;;;;;7.32;5.28;;;24.40;95.80;;;;;;4993447;28;20041;-78
2021/06/17 00:30:53;;;;;;;7.63;4.65;;;24.30;95.70;;;;;;4995552;28;20500;-76
2021/06/17 00:33:19;;;;;;;8.82;5.60;;;24.30;95.80;;;;;;4995264;28;20426;-75
2021/06/17 00:35:45;;;;;;;7.63;5.13;;;24.30;95.70;;;;;;4995534;28;20023;-74
2021/06/17 00:38:11;;;;;;;7.07;5.47;;;24.30;95.80;;;;;;4995203;28;20033;-76
2021/06/17 00:40:37;;;;;;;9.45;5.78;;;24.30;95.60;;;;;;4994461;28;20406;-77
2021/06/17 00:43:04;;;;;;;9.85;5.43;;;24.30;95.70;;;;;;4994707;28;20037;-76
2021/06/17 00:45:32;;;;;;;7.68;5.80;;;24.30;95.60;;;;;;4994930;28;20026;-78
2021/06/17 00:47:58;;;;;;;6.82;5.22;;;24.30;95.70;;;;;;4995210;28;20474;-75
2021/06/17 00:50:28;;;;;;;6.40;5.53;;;24.40;95.50;;;;;;4994859;28;20113;-76
2021/06/17 00:52:53;;;;;;;7.20;5.53;;;24.30;95.70;;;;;;4994870;28;20027;-75
2021/06/17 00:55:19;;;;;;;6.30;5.28;;;24.30;95.50;;;;;;4994465;28;20022;-75
2021/06/17 00:57:45;;;;;;;6.53;4.68;;;24.30;95.50;;;;;;4995377;28;20038;-75
2021/06/17 01:00:13;;;;;;;7.35;4.75;;;24.30;95.50;;;;;;4994784;28;20038;-74
2021/06/17 01:02:39;;;;;;;7.65;4.90;;;24.30;95.80;;;;;;4994558;28;20084;-75
2021/06/17 01:05:10;;;;;;;5.95;5.35;;;24.30;95.70;;;;;;4994790;28;20140;-75
2021/06/17 01:07:56;;;;;;;8.90;4.80;;;24.30;95.70;;;;;;4994436;28;20022;-76
2021/06/17 01:10:21;;;;;;;8.50;5.10;;;24.30;95.70;;;;;;4993743;28;20044;-77
2021/06/17 01:13:25;;;;;;;7.40;5.20;;;24.30;95.80;;;;;;4995032;28;20022;-75
2021/06/17 01:16:03;;;;;;;7.40;4.95;;;24.30;95.90;;;;;;4994691;28;20543;-77
2021/06/17 01:18:30;;;;;;;6.10;4.72;;;24.30;95.70;;;;;;4994118;28;20081;-75
2021/06/17 01:20:58;;;;;;;8.45;4.28;;;24.30;95.60;;;;;;4994723;28;20382;-75
2021/06/17 01:24:01;;;;;;;6.30;4.55;;;24.20;95.50;;;;;;4994299;28;20054;-77
2021/06/17 01:26:57;;;;;;;5.75;5.03;;;24.30;95.50;;;;;;4994119;28;20061;-75
2021/06/17 01:29:25;;;;;;;7.82;4.95;;;24.20;95.30;;;;;;5009213;28;20034;-76
2021/06/17 01:31:53;;;;;;;7.57;5.13;;;24.20;95.20;;;;;;4994442;28;20105;-74
2021/06/17 01:34:21;;;;;;;7.05;4.80;;;24.20;95.10;;;;;;4977093;28;20435;-74
2021/06/17 01:36:54;;;;;;;7.95;4.50;;;24.20;95.20;;;;;;4994411;28;20062;-75
2021/06/17 01:39:21;;;;;;;8.85;4.47;;;24.20;95.10;;;;;;4993221;28;20033;-75
2021/06/17 01:41:48;;;;;;;6.40;4.60;;;24.20;95.00;;;;;;4993954;28;20030;-74
2021/06/17 01:44:19;;;;;;;6.60;4.40;;;24.20;95.00;;;;;;4994368;28;20101;-77
2021/06/17 01:46:46;;;;;;;7.53;4.72;;;24.20;94.90;;;;;;5009154;28;20037;-76
2021/06/17 01:49:14;;;;;;;6.47;4.85;;;24.20;94.90;;;;;;4994003;28;20371;-75
2021/06/17 01:51:40;;;;;;;7.13;4.68;;;24.10;94.90;;;;;;4991106;28;20030;-74
2021/06/17 01:54:06;;;;;;;6.88;4.82;;;24.10;94.80;;;;;;4973655;28;20033;-74
2021/06/17 01:56:34;;;;;;;7.40;5.10;;;24.10;94.70;;;;;;4974224;28;20497;-74
2021/06/17 01:59:04;;;;;;;7.80;4.35;;;24.20;94.60;;;;;;4974434;28;20027;-75
2021/06/17 02:01:32;;;;;;;6.65;4.55;;;24.10;94.60;;;;;;4973969;28;20058;-75
2021/06/17 02:04:00;;;;;;;5.80;4.60;;;24.10;94.60;;;;;;4974312;28;20023;-74
2021/06/17 02:06:27;;;;;;;5.53;4.47;;;24.10;94.60;;;;;;4973756;28;20074;-75
2021/06/17 02:08:55;;;;;;;6.35;4.15;;;24.10;94.60;;;;;;4981224;28;20094;-74
2021/06/17 02:11:22;;;;;;;6.22;4.80;;;24.10;94.40;;;;;;4992051;28;20026;-76
2021/06/17 02:13:49;;;;;;;4.40;3.83;;;24.10;94.30;;;;;;4993958;28;20098;-73
2021/06/17 02:16:16;;;;;;;8.95;4.50;;;24.10;94.40;;;;;;4993859;28;20482;-74
2021/06/17 02:18:45;;;;;;;5.00;4.20;;;24.10;94.30;;;;;;4993000;28;20021;-74
2021/06/17 02:21:13;;;;;;;4.20;3.72;;;24.10;94.30;;;;;;4993501;28;20050;-74
2021/06/17 02:23:41;;;;;;;6.10;4.43;;;24.10;94.20;;;;;;4993143;28;20441;-74
2021/06/17 02:26:08;;;;;;;5.22;3.90;;;24.10;94.20;;;;;;4993252;28;20061;-76
2021/06/17 02:28:40;;;;;;;6.22;4.07;;;24.10;94.10;;;;;;4992955;28;20478;-75
2021/06/17 02:31:09;;;;;;;6.72;4.30;;;24.10;94.40;;;;;;4993132;28;20027;-76
2021/06/17 02:33:37;;;;;;;6.03;3.95;;;24.00;94.00;;;;;;4993084;28;20156;-77
2021/06/17 02:36:04;;;;;;;7.30;3.95;;;24.00;94.00;;;;;;4992941;28;20033;-75
2021/06/17 02:38:34;;;;;;;6.70;4.28;;;24.00;93.90;;;;;;4992539;28;20023;-75
2021/06/17 02:41:03;;;;;;;7.03;3.72;;;24.10;93.90;;;;;;4993093;28;20085;-75
2021/06/17 02:43:34;;;;;;;7.75;4.22;;;24.00;93.80;;;;;;4992731;28;20168;-75
2021/06/17 02:46:00;;;;;;;7.50;4.10;;;24.00;93.70;;;;;;4992869;28;20022;-77
2021/06/17 02:48:26;;;;;;;7.95;4.15;;;24.00;93.70;;;;;;5007194;28;20026;-75
2021/06/17 02:50:51;;;;;;;5.72;3.83;;;24.00;93.70;;;;;;4992020;28;20037;-76
2021/06/17 02:53:18;;;;;;;9.68;4.10;;;24.00;93.60;;;;;;4991840;28;20450;-76
2021/06/17 02:55:43;;;;;;;7.45;4.35;;;24.00;93.60;;;;;;5007507;28;20389;-77
2021/06/17 02:58:37;;;;;;;6.85;4.20;;;24.00;93.50;;;;;;4992666;28;20031;-75
2021/06/17 03:01:32;;;;;;;7.45;3.75;;;24.00;93.40;;;;;;4992570;28;20054;-77
2021/06/17 03:04:04;;;;;;;5.65;3.55;;;24.00;93.30;;;;;;4992884;28;20502;-75
2021/06/17 03:06:34;;;;;;;6.35;4.15;;;23.90;93.20;;;;;;4992520;28;20023;-76
2021/06/17 03:09:04;;;;;;;6.53;3.60;;;23.90;93.20;;;;;;4992104;28;20057;-77
2021/06/17 03:11:34;;;;;;;5.43;4.00;;;23.90;93.20;;;;;;4992119;28;20072;-76
2021/06/17 03:14:05;;;;;;;6.20;4.38;;;23.90;93.20;;;;;;4992450;28;20512;-75
2021/06/17 03:16:35;;;;;;;5.50;3.67;;;23.90;93.20;;;;;;4992364;28;20133;-75
2021/06/17 03:19:01;;;;;;;6.00;3.30;;;23.90;93.10;;;;;;4992280;28;20079;-75
2021/06/17 03:21:31;;;;;;;5.13;3.55;;;23.90;93.10;;;;;;4992239;28;20026;-74
2021/06/17 03:23:58;;;;;;;5.38;3.90;;;23.90;93.10;;;;;;4992419;28;20019;-75
2021/06/17 03:26:26;;;;;;;6.00;3.88;;;23.90;93.00;;;;;;4990806;28;20054;-75
2021/06/17 03:28:54;;;;;;;6.28;3.67;;;23.90;93.00;;;;;;4992357;28;20125;-76
2021/06/17 03:31:20;;;;;;;6.32;4.45;;;23.90;93.00;;;;;;4991775;28;20466;-76
2021/06/17 03:33:50;;;;;;;6.20;4.00;;;23.90;92.90;;;;;;4992446;28;20022;-75
2021/06/17 03:36:16;;;;;;;6.10;3.67;;;23.90;92.80;;;;;;4992348;28;20483;-75
2021/06/17 03:38:43;;;;;;;4.15;3.45;;;23.90;92.80;;;;;;4991417;28;20450;-75
2021/06/17 03:41:10;;;;;;;8.88;4.20;;;23.80;92.80;;;;;;4990397;28;20125;-76
2021/06/17 03:43:38;;;;;;;7.30;3.70;;;23.90;92.80;;;;;;4991721;28;20038;-75
2021/06/17 03:46:05;;;;;;;6.25;4.03;;;23.90;92.80;;;;;;4991851;28;20018;-76
2021/06/17 03:48:32;;;;;;;6.97;4.00;;;23.80;92.70;;;;;;4991759;28;20124;-75
2021/06/17 03:50:59;;;;;;;7.90;3.50;;;23.90;92.60;;;;;;5006898;28;20026;-75
2021/06/17 03:53:26;;;;;;;7.15;3.80;;;23.80;92.60;;;;;;4991414;28;20022;-75
2021/06/17 03:55:53;;;;;;;10.73;4.10;;;23.80;92.50;;;;;;4991898;28;20027;-75
2021/06/17 03:58:23;;;;;;;8.80;3.30;;;23.80;92.50;;;;;;5006517;28;20030;-75
2021/06/17 04:00:49;;;;;;;5.35;3.45;;;23.80;92.50;;;;;;4992082;28;20027;-76
2021/06/17 04:03:16;;;;;;;4.40;3.47;;;23.90;92.50;;;;;;4992125;28;20105;-76
2021/06/17 04:05:41;;;;;;;5.70;3.75;;;23.80;92.50;;;;;;4991672;28;20026;-76
2021/06/17 04:08:10;;;;;;;4.93;3.03;;;23.80;92.50;;;;;;4991202;28;20026;-75
2021/06/17 04:10:38;;;;;;;3.47;3.10;;;23.80;92.40;;;;;;4986982;28;20558;-76
2021/06/17 04:13:07;;;;;;;6.60;3.63;;;23.80;92.40;;;;;;4987288;28;20121;-75
2021/06/17 04:15:34;;;;;;;5.43;3.20;;;23.80;92.30;;;;;;4971986;28;20058;-75
2021/06/17 04:18:02;;;;;;;6.78;3.70;;;23.80;92.30;;;;;;4972227;28;20114;-75
2021/06/17 04:20:41;;;;;;;5.97;3.50;;;23.80;92.20;;;;;;4971806;28;20107;-75
2021/06/17 04:23:08;;;;;;;5.60;3.45;;;23.80;92.60;;;;;;4972318;28;20458;-75
2021/06/17 04:25:35;;;;;;;5.10;3.15;;;23.80;92.30;;;;;;4971854;28;20506;-74
2021/06/17 04:28:03;;;;;;;9.63;3.35;;;23.80;92.40;;;;;;4986990;28;20050;-72
2021/06/17 04:30:31;;;;;;;10.88;3.70;;;23.80;92.10;;;;;;4971673;28;20471;-73
2021/06/17 04:33:00;;;;;;;15.25;3.63;;;23.80;92.10;;;;;;4972272;28;20114;-74
2021/06/17 04:35:29;;;;;;;12.10;3.30;;;23.80;92.50;;;;;;4971699;28;20015;-73
2021/06/17 04:37:55;;;;;;;8.10;2.88;;;23.80;92.90;;;;;;4974925;28;20080;-73
2021/06/17 04:40:22;;;;;;;10.85;3.05;;;23.80;93.30;;;;;;4990034;28;20030;-73
2021/06/17 04:42:53;;;;;;;7.78;2.47;;;23.80;93.80;;;;;;4991780;28;20514;-73
2021/06/17 04:45:21;;;;;;;11.80;3.13;;;23.80;94.10;;;;;;5006357;28;20022;-72
2021/06/17 04:47:49;;;;;;;11.68;2.80;;;23.80;94.50;;;;;;5006628;28;20124;-74
2021/06/17 04:50:17;;;;;;;6.47;2.35;;;23.70;94.90;;;;;;4991633;28;20475;-73
2021/06/17 04:53:07;;;;;;;6.72;2.88;;;23.70;95.40;;;;;;4990737;28;20038;-73
2021/06/17 04:55:35;;;;;;;10.57;2.97;;;23.70;96.20;;;;;;4987841;28;20038;-73
2021/06/17 04:58:00;;;;;;;5.28;2.22;;;23.70;97.00;;;;;;5006478;28;20041;-74
2021/06/17 05:00:26;;;;;;;9.35;2.85;;;23.60;97.90;;;;;;4990406;28;20023;-75
2021/06/17 05:02:51;;;;;;;8.73;3.05;;;23.60;99.00;;;;;;4991150;28;20141;-74
2021/06/17 05:05:17;;;;;;;7.18;3.38;;;23.60;99.80;;;;;;4991303;28;20390;-76
2021/06/17 05:12:56;;;;;;;6.25;2.67;;;23.60;99.90;;;;;;4982857;28;20089;-75
2021/06/17 05:15:22;;;;;;;7.47;2.88;;;23.60;99.90;;;;;;4993737;28;20026;-75
2021/06/17 05:17:48;;;;;;;9.13;3.55;;;23.60;99.90;;;;;;4994803;28;20030;-75
2021/06/17 05:20:14;;;;;;;10.10;3.67;;;23.60;99.90;;;;;;4994862;28;20029;-76
2021/06/17 05:22:44;;;;;;;7.78;4.03;;;23.60;99.90;;;;;;4993861;28;20113;-74
2021/06/17 05:25:12;;;;;;;7.80;3.53;;;23.60;99.90;;;;;;4994023;28;20097;-74
2021/06/17 05:27:39;;;;;;;9.50;3.67;;;23.60;99.90;;;;;;4993937;28;20110;-73
2021/06/17 05:30:07;;;;;;;8.10;3.72;;;23.60;99.90;;;;;;4994265;28;20033;-74
2021/06/17 05:32:33;;;;;;;9.57;3.45;;;23.60;99.90;;;;;;4993185;28;20493;-74
2021/06/17 05:34:58;;;;;;;11.50;3.85;;;23.60;99.90;;;;;;4993778;28;20030;-73
2021/06/17 05:37:24;;;;;;;8.60;3.92;;;23.60;99.90;;;;;;4993417;28;20087;-74
2021/06/17 05:39:50;;;;;;;9.23;3.85;;;23.60;99.90;;;;;;4994392;28;20410;-74
2021/06/17 05:42:16;;;;;;;12.00;4.38;;;23.60;99.90;;;;;;4993690;28;20030;-74
2021/06/17 05:44:41;;;;;;;14.70;5.13;;;23.60;99.90;;;;;;4993782;28;20038;-75
2021/06/17 05:47:07;;;;;;;14.90;4.20;;;23.50;99.90;;;;;;4992627;28;20448;-74
2021/06/17 05:49:32;;;;;;;14.07;4.63;;;23.50;99.90;;;;;;4993550;28;20027;-74
2021/06/17 05:51:58;;;;;;;9.90;4.00;;;23.50;99.90;;;;;;4991684;28;20022;-74
2021/06/17 05:54:24;;;;;;;13.48;4.72;;;23.50;99.90;;;;;;4993091;28;20478;-74
2021/06/17 05:56:49;;;;;;;7.70;4.07;;;23.60;99.90;;;;;;4993664;28;20387;-74
2021/06/17 05:59:17;;;;;;;10.93;4.05;;;23.60;99.90;;;;;;4994137;28;20030;-74
2021/06/17 06:01:44;;;;;;;11.07;4.30;;;23.60;99.90;;;;;;4992332;28;20037;-75
2021/06/17 06:04:09;;;;;;;7.13;3.88;;;23.60;99.90;;;;;;4993803;28;20030;-74
2021/06/17 06:06:35;;;;;;;10.80;4.60;;;23.70;99.90;;;;;;4992837;28;20077;-74
2021/06/17 06:09:01;;;;;;;8.02;3.60;;;23.70;99.90;;;;;;4992525;28;20142;-74
2021/06/17 06:11:26;;;;;;;11.30;4.50;;;23.70;99.90;;;;;;4992640;28;20061;-73
2021/06/17 06:13:52;;;;;;;8.00;3.47;;;23.80;99.90;;;;;;4992419;28;20486;-72
2021/06/17 06:16:18;;;;;;;9.98;4.20;;;23.80;99.90;;;;;;4992699;28;20050;-72
2021/06/17 06:18:43;;;;;;;10.07;5.03;;;23.80;99.90;;;;;;4993210;28;20034;-73
2021/06/17 06:21:09;;;;;;;10.45;5.25;;;23.70;99.90;;;;;;4993511;28;20030;-73
2021/06/17 06:23:34;;;;;;;15.43;5.15;;;23.60;99.90;;;;;;4992402;28;20097;-73
2021/06/17 06:26:01;;;;;;;11.00;4.53;;;23.60;99.90;;;;;;4992240;28;20053;-74
2021/06/17 06:28:27;;;;;;;10.48;4.72;;;23.60;99.90;;;;;;4992962;28;20026;-75
2021/06/17 06:30:54;;;;;;;11.25;4.90;;;23.50;99.90;;;;;;4992686;28;20117;-75
2021/06/17 06:33:21;;;;;;;13.52;4.88;;;23.50;99.90;;;;;;4992432;28;20514;-73
2021/06/17 06:35:48;;;;;;;16.98;5.28;;;23.50;99.90;;;;;;4992636;28;20037;-74
2021/06/17 06:38:14;;;;;;;14.80;4.90;;;23.50;99.90;;;;;;5008147;28;20030;-74
2021/06/17 06:40:40;;;;;;;11.23;4.78;;;23.50;99.90;;;;;;4991784;28;20149;-74
2021/06/17 06:43:08;;;;;;;15.45;5.05;;;23.50;99.90;;;;;;4992231;28;20037;-73
2021/06/17 06:45:34;;;;;;;11.10;4.80;;;23.50;99.90;;;;;;4995197;28;20034;-73
2021/06/17 06:48:00;;;;;;;13.70;5.80;;;23.50;99.90;;;;;;4991728;28;20033;-75
2021/06/17 06:50:26;;;;;;;12.57;5.35;;;23.50;99.90;;;;;;4992322;28;20031;-74
2021/06/17 06:52:52;;;;;;;12.15;5.28;;;23.60;99.90;;;;;;4992951;28;20390;-75
2021/06/17 06:55:18;;;;;;;10.43;5.72;;;23.60;99.90;;;;;;4993169;28;20418;-75
2021/06/17 06:57:45;;;;;;;12.05;5.05;;;23.50;99.90;;;;;;4992638;28;20516;-75
2021/06/17 07:00:13;;;;;;;9.65;4.20;;;23.50;99.90;;;;;;4992180;28;20034;-75
2021/06/17 07:02:39;;;;;;;15.23;4.97;;;23.50;99.90;;;;;;4992553;28;20136;-76
2021/06/17 07:05:06;;;;;;;10.10;5.00;;;23.50;99.90;;;;;;4992597;28;20495;-76
2021/06/17 07:07:32;;;;;;;17.52;5.80;;;23.50;99.90;;;;;;4992111;28;20026;-76
2021/06/17 07:09:58;;;;;;;12.63;5.20;;;23.50;99.90;;;;;;4992001;28;20030;-76
2021/06/17 07:12:24;;;;;;;9.27;5.18;;;23.50;99.90;;;;;;4992079;28;20030;-75
2021/06/17 07:14:49;;;;;;;15.25;4.97;;;23.50;99.90;;;;;;4991908;28;20540;-76
2021/06/17 07:17:15;;;;;;;10.00;4.57;;;23.50;99.90;;;;;;4992334;28;20030;-76
2021/06/17 07:19:41;;;;;;;12.40;4.80;;;23.50;99.90;;;;;;4991665;28;20095;-77
2021/06/17 07:22:07;;;;;;;12.15;4.95;;;23.60;99.90;;;;;;5007504;28;20121;-77
2021/06/17 07:24:32;;;;;;;14.30;5.95;;;23.60;99.90;;;;;;4992014;28;20037;-77
2021/06/17 07:26:58;;;;;;;8.45;4.75;;;23.60;99.90;;;;;;4990366;28;20061;-76
2021/06/17 07:29:24;;;;;;;12.05;5.05;;;23.60;99.90;;;;;;4991641;28;20494;-76
2021/06/17 07:31:49;;;;;;;10.95;4.43;;;23.60;99.90;;;;;;4990915;28;20026;-77
2021/06/17 07:34:15;;;;;;;13.05;4.28;;;23.70;99.90;;;;;;4991881;28;20033;-79
2021/06/17 07:36:42;;;;;;;15.45;4.00;;;23.70;99.90;;;;;;4991595;28;20410;-77
2021/06/17 07:39:09;;;;;;;9.02;4.13;;;23.70;99.90;;;;;;4992028;28;20022;-79
2021/06/17 07:41:36;;;;;;;12.88;4.63;;;23.70;99.90;;;;;;4992042;28;20370;-80
2021/06/17 07:44:02;;;;;;;11.48;5.07;;;23.70;99.90;;;;;;4992003;28;20041;-79
2021/06/17 07:46:28;;;;;;;10.05;4.28;;;23.70;99.90;;;;;;4991940;28;20422;-80
2021/06/17 07:48:54;;;;;;;12.60;4.65;;;23.70;99.90;;;;;;4991742;28;20026;-81
2021/06/17 07:51:20;;;;;;;9.27;4.40;;;23.80;99.90;;;;;;4991637;28;20037;-80
2021/06/17 07:53:46;;;;;;;14.30;4.80;;;23.80;99.90;;;;;;4991965;28;20097;-79
2021/06/17 07:56:12;;;;;;;11.93;5.30;;;23.80;99.90;;;;;;4991573;28;20042;-81
2021/06/17 07:58:37;;;;;;;8.93;4.00;;;23.70;99.90;;;;;;4991663;28;20027;-80
2021/06/17 08:01:05;;;;;;;9.68;4.70;;;23.80;99.90;;;;;;5005895;28;20041;-79
2021/06/17 08:03:31;;;;;;;12.93;4.50;;;23.80;99.90;;;;;;4991512;28;20398;-77
2021/06/17 08:05:56;;;;;;;9.60;4.65;;;23.80;99.90;;;;;;4991226;28;20375;-79
2021/06/17 08:08:23;;;;;;;8.85;4.68;;;23.80;99.90;;;;;;4991644;28;20165;-78
2021/06/17 08:10:49;;;;;;;11.15;5.78;;;23.80;99.90;;;;;;4991397;28;20053;-78
2021/06/17 08:13:15;;;;;;;11.35;4.60;;;23.80;99.90;;;;;;4992012;28;20058;-78
2021/06/17 08:15:40;;;;;;;9.98;5.25;;;23.80;99.90;;;;;;4991559;28;20113;-78
2021/06/17 08:18:07;;;;;;;13.98;6.15;;;23.80;99.90;;;;;;4991702;28;20427;-76
2021/06/17 08:20:32;;;;;;;8.50;4.13;;;23.80;99.90;;;;;;4991485;28;20383;-77
2021/06/17 08:22:58;;;;;;;9.68;5.38;;;23.80;99.90;;;;;;4991714;28;20031;-79
2021/06/17 08:25:24;;;;;;;15.65;5.00;;;23.80;99.90;;;;;;4990781;28;20026;-78
2021/06/17 08:27:50;;;;;;;12.73;5.43;;;23.90;99.90;;;;;;4991645;28;20026;-78
2021/06/17 08:30:18;;;;;;;12.50;5.57;;;23.90;99.90;;;;;;4991484;28;20018;-78
2021/06/17 08:32:45;;;;;;;11.68;5.00;;;23.80;99.90;;;;;;4991731;28;20030;-79
2021/06/17 08:35:13;;;;;;;14.68;5.75;;;23.90;99.90;;;;;;4991381;28;20018;-79
2021/06/17 08:37:39;;;;;;;12.82;5.50;;;23.90;99.90;;;;;;4990976;28;20954;-78
2021/06/17 08:40:06;;;;;;;14.48;5.70;;;23.90;99.90;;;;;;5006507;28;20065;-80
2021/06/17 08:42:32;;;;;;;15.13;5.43;;;23.90;99.90;;;;;;5006370;28;20022;-81
2021/06/17 08:44:59;;;;;;;14.93;5.50;;;23.90;99.90;;;;;;4991355;28;20031;-74
2021/06/17 08:47:26;;;;;;;10.75;4.78;;;23.90;99.90;;;;;;4991260;28;20062;-72
2021/06/17 08:49:53;;;;;;;9.77;4.47;;;23.90;99.90;;;;;;4994039;28;20022;-73
2021/06/17 08:52:20;;;;;;;10.80;4.90;;;23.90;99.90;;;;;;4995294;28;20065;-70
2021/06/17 08:54:46;;;;;;;8.60;4.18;;;23.90;99.90;;;;;;4995309;28;20454;-71
2021/06/17 08:57:16;;;;;;;10.50;5.22;;;23.90;99.90;;;;;;4995028;28;20038;-69
2021/06/17 08:59:44;;;;;;;7.03;3.85;;;23.90;99.90;;;;;;4994379;28;20032;-72
2021/06/17 09:02:10;;;;;;;10.43;3.92;;;23.90;99.90;;;;;;4993461;28;20030;-74
2021/06/17 09:04:36;;;;;;;10.23;4.15;;;24.00;99.90;;;;;;4994807;28;20430;-73
2021/06/17 09:07:03;;;;;;;10.38;4.32;;;23.90;99.90;;;;;;4994907;28;20034;-70
2021/06/17 09:09:41;;;;;;;13.10;4.60;;;24.00;99.90;;;;;;4994649;28;20386;-74
2021/06/17 09:12:09;;;;;;;7.97;3.65;;;24.00;99.90;;;;;;4994797;28;20513;-73
2021/06/17 09:14:35;;;;;;;10.38;3.90;;;24.00;99.90;;;;;;4994664;28;20046;-73
2021/06/17 09:17:04;;;;;;;12.15;3.97;;;24.00;99.90;;;;;;4994836;28;20073;-70
2021/06/17 09:19:45;;;;;;;10.50;4.38;;;24.00;99.90;;;;;;4994529;28;20024;-70
2021/06/17 09:22:14;;;;;;;9.52;3.90;;;24.00;99.90;;;;;;4994863;28;20125;-73
2021/06/17 09:24:42;;;;;;;7.22;3.83;;;24.00;99.90;;;;;;4992420;28;20054;-70
2021/06/17 09:27:25;;;;;;;9.43;3.67;;;24.10;99.90;;;;;;4994477;28;20034;-71
2021/06/17 09:30:14;;;;;;;9.93;3.28;;;24.10;99.90;;;;;;4994213;28;21590;-71
2021/06/17 09:33:03;;;;;;;7.18;3.50;;;24.00;99.90;;;;;;4993327;28;20081;-75
2021/06/17 09:35:31;;;;;;;8.07;3.38;;;24.10;99.90;;;;;;4993996;28;20034;-76
2021/06/17 09:38:05;;;;;;;9.23;3.28;;;24.10;99.90;;;;;;4994410;28;20038;-73
2021/06/17 09:40:32;;;;;;;8.05;3.10;;;24.10;99.90;;;;;;4993999;28;20053;-76
2021/06/17 09:43:19;;;;;;;9.45;3.40;;;24.10;99.90;;;;;;4994447;28;20026;-71
2021/06/17 09:46:06;;;;;;;10.32;3.05;;;24.10;99.90;;;;;;4994452;28;20392;-76
2021/06/17 09:48:49;;;;;;;6.80;3.60;;;24.10;99.90;;;;;;4993917;28;20030;-73
2021/06/17 09:51:44;;;;;;;12.00;3.17;;;24.10;99.90;;;;;;4994499;28;20038;-74
2021/06/17 09:54:09;;;;;;;5.68;3.30;;;24.10;99.90;;;;;;4994290;28;20014;-71
2021/06/17 09:56:37;;;;;;;10.52;3.70;;;24.10;99.90;;;;;;4993818;28;20049;-71
2021/06/17 09:59:09;;;;;;;4.68;3.10;;;24.10;99.90;;;;;;4993986;28;20527;-75
2021/06/17 10:01:38;;;;;;;9.32;3.83;;;24.20;99.90;;;;;;4993398;28;20045;-72
2021/06/17 10:04:06;;;;;;;6.45;3.30;;;24.20;99.90;;;;;;4993990;28;20029;-73
2021/06/17 10:06:35;;;;;;;9.50;3.30;;;24.20;99.90;;;;;;4993592;28;20072;-76
2021/06/17 10:09:10;;;;;;;12.27;4.20;;;24.20;99.90;;;;;;4993066;28;20034;-76
2021/06/17 10:11:37;;;;;;;10.13;3.33;;;24.20;99.90;;;;;;4993218;28;20390;-74
2021/06/17 10:14:04;;;;;;;9.85;3.05;;;24.20;99.90;;;;;;4991950;28;20033;-72
2021/06/17 10:16:30;;;;;;;8.45;4.05;;;24.20;99.90;;;;;;4993445;28;20038;-70
2021/06/17 10:18:56;;;;;;;7.28;2.90;;;24.20;99.90;;;;;;4993707;28;20026;-72
2021/06/17 10:21:22;;;;;;;11.27;4.00;;;24.20;99.90;;;;;;4993342;28;20130;-70
2021/06/17 10:23:50;;;;;;;27.98;3.47;;;24.20;99.90;;;;;;4993652;28;20038;-71
2021/06/17 10:26:21;;;;;;;34.78;6.32;;;24.20;99.90;;;;;;4993581;28;20027;-70
2021/06/17 10:28:55;;;;;;;30.08;5.88;;;24.30;99.90;;;;;;4993724;28;20386;-70
2021/06/17 10:31:35;;;;;;;32.95;5.80;;;24.20;99.90;;;;;;4991888;28;20027;-72
2021/06/17 10:34:23;;;;;;;29.02;6.13;;;24.30;99.90;;;;;;4993390;28;20122;-70
2021/06/17 10:37:21;;;;;;;20.45;4.85;;;24.30;99.90;;;;;;4993191;28;20569;-72
2021/06/17 10:39:51;;;;;;;21.95;4.93;;;24.30;99.90;;;;;;4993541;28;20145;-72
2021/06/17 10:42:30;;;;;;;17.58;4.63;;;24.30;99.90;;;;;;5008385;28;20022;-72
2021/06/17 10:45:06;;;;;;;22.42;4.22;;;24.30;99.90;;;;;;4992867;28;20022;-71
2021/06/17 10:47:41;;;;;;;18.52;4.85;;;24.30;99.90;;;;;;4992866;28;20553;-71
2021/06/17 10:50:12;;;;;;;14.30;3.60;;;24.30;99.90;;;;;;4992510;28;20479;-71
2021/06/17 10:52:40;;;;;;;12.40;3.50;;;24.30;99.90;;;;;;4992820;28;20031;-71
2021/06/17 10:55:20;;;;;;;15.05;3.35;;;24.40;99.90;;;;;;4992767;28;20505;-72
2021/06/17 10:57:49;;;;;;;13.13;4.50;;;24.40;99.90;;;;;;5008156;28;20363;-75
2021/06/17 11:00:24;;;;;;;10.80;3.33;;;24.40;99.90;;;;;;4992408;28;20482;-74
2021/06/17 11:02:53;;;;;;;12.38;3.47;;;24.40;99.90;;;;;;4992437;28;20402;-71
2021/06/17 11:05:31;;;;;;;6.45;2.97;;;24.40;99.90;;;;;;4992697;28;20026;-71
2021/06/17 11:08:21;;;;;;;9.68;3.50;;;24.40;99.90;;;;;;4992110;28;20030;-73
2021/06/17 11:11:05;;;;;;;10.85;3.50;;;24.50;99.90;;;;;;4992762;28;20030;-72
2021/06/17 11:13:56;;;;;;;10.45;3.13;;;24.50;99.90;;;;;;4992334;28;20098;-71
2021/06/17 11:16:22;;;;;;;6.72;2.75;;;24.50;99.90;;;;;;4992099;28;20510;-73
2021/06/17 11:21:26;;;;;;;10.70;3.03;;;24.50;99.90;;;;;;4992252;28;20038;-72
2021/06/17 11:24:07;;;;;;;11.20;3.63;;;24.50;99.90;;;;;;4992672;28;20062;-73
2021/06/17 11:26:36;;;;;;;7.40;2.65;;;24.50;99.90;;;;;;4991874;28;20457;-72
2021/06/17 11:29:04;;;;;;;10.00;3.28;;;24.50;99.90;;;;;;4992227;28;20097;-72
2021/06/17 11:31:43;;;;;;;9.45;2.67;;;24.50;99.90;;;;;;4991499;28;20471;-71
2021/06/17 11:34:11;;;;;;;14.05;2.90;;;24.50;99.90;;;;;;4992177;28;20022;-72
2021/06/17 11:36:50;;;;;;;5.40;2.60;;;24.50;99.90;;;;;;4991975;28;20085;-70
2021/06/17 11:39:26;;;;;;;7.95;2.97;;;24.50;99.90;;;;;;4992430;28;20475;-72
2021/06/17 11:41:57;;;;;;;6.13;2.30;;;24.60;99.90;;;;;;4992208;28;20041;-71
2021/06/17 11:44:26;;;;;;;8.75;2.67;;;24.60;99.90;;;;;;4991688;28;20033;-72
2021/06/17 11:47:07;;;;;;;7.65;3.22;;;24.60;99.90;;;;;;4992321;28;20092;-72
2021/06/17 11:49:35;;;;;;;5.38;2.55;;;24.70;99.90;;;;;;4991667;28;20097;-72
2021/06/17 11:52:01;;;;;;;6.47;2.50;;;24.70;99.90;;;;;;4990751;28;20033;-74
2021/06/17 11:54:27;;;;;;;10.70;2.50;;;24.70;99.90;;;;;;4991706;28;20045;-74
2021/06/17 11:56:58;;;;;;;7.53;3.13;;;24.70;99.90;;;;;;4991945;28;20073;-72
2021/06/17 11:59:32;;;;;;;9.00;2.75;;;24.70;99.90;;;;;;4991120;28;20022;-72
2021/06/17 12:02:05;;;;;;;14.20;3.33;;;24.70;99.90;;;;;;4991850;28;20030;-72
2021/06/17 12:05:07;;;;;;;8.70;3.10;;;24.70;99.90;;;;;;4991280;28;20030;-73
2021/06/17 12:07:35;;;;;;;6.25;2.60;;;24.70;99.90;;;;;;4991528;28;20022;-74
2021/06/17 12:10:36;;;;;;;5.68;3.08;;;24.70;99.90;;;;;;4991799;28;20019;-75
2021/06/17 12:13:04;;;;;;;11.60;2.75;;;24.70;99.90;;;;;;4969727;28;20050;-75
2021/06/17 12:15:37;;;;;;;6.00;2.58;;;24.70;99.90;;;;;;4986221;28;20038;-75
2021/06/17 12:18:04;;;;;;;9.82;3.22;;;24.70;99.90;;;;;;4991696;28;20041;-71
2021/06/17 12:20:38;;;;;;;4.93;2.33;;;24.70;99.90;;;;;;4991454;28;20505;-71
2021/06/17 12:23:33;;;;;;;7.90;3.00;;;24.70;99.90;;;;;;4990171;28;20166;-73
2021/06/17 12:26:09;;;;;;;7.30;3.08;;;24.70;99.90;;;;;;4990658;28;20034;-72
2021/06/17 12:28:56;;;;;;;7.97;2.83;;;24.70;99.90;;;;;;4995413;28;20026;-72
2021/06/17 12:31:29;;;;;;;11.10;3.15;;;24.70;99.90;;;;;;4986039;28;20034;-71
2021/06/17 12:34:15;;;;;;;6.13;2.78;;;24.70;99.90;;;;;;4994766;28;20033;-71
2021/06/17 12:36:41;;;;;;;;;;;24.70;99.90;;;;;;4995573;28;20030;-72
2021/06/17 12:39:19;;;;;;;7.20;2.13;;;24.70;99.90;;;;;;4995234;28;20373;-71
2021/06/17 12:41:48;;;;;;;7.22;2.90;;;24.70;99.90;;;;;;4995679;28;20061;-72
2021/06/17 12:44:32;;;;;;;6.70;2.63;;;24.70;99.90;;;;;;4995352;28;20459;-71
2021/06/17 12:47:00;;;;;;;10.60;2.75;;;24.70;99.90;;;;;;4995359;28;20085;-71
2021/06/17 12:52:07;;;;;;;5.55;2.90;;;24.70;99.90;;;;;;4995273;28;20065;-72
2021/06/17 12:54:39;;;;;;;6.40;2.70;;;24.70;99.90;;;;;;4994700;28;20502;-70
2021/06/17 12:57:12;;;;;;;6.05;2.25;;;24.70;99.90;;;;;;4995043;28;20034;-72
2021/06/17 12:59:40;;;;;;;6.65;2.88;;;24.70;99.90;;;;;;4994457;28;20033;-72
2021/06/17 13:02:08;;;;;;;5.70;3.15;;;24.70;99.90;;;;;;4995014;28;20034;-70
2021/06/17 13:04:34;;;;;;;6.85;2.75;;;24.70;99.90;;;;;;4994492;28;20022;-70
2021/06/17 13:07:00;;;;;;;6.82;2.95;;;24.70;99.90;;;;;;4994926;28;20060;-72